sensor_id;sensor_type;location;lat;lon;timestamp;pressure;altitude;pressure_sealevel;temperature;humidity
27805;BME280;15183;51.350;11.102;2023-04-01T00:01:05;98145.25;;;13.88;67.75
27805;BME280;15183;51.350;11.102;2023-04-01T00:03:32;98180.97;;;14.20;68.06
27805;BME280;15183;51.350;11.102;2023-04-01T00:05:59;98128.03;;;13.80;67.65
27805;BME280;15183;51.350;11.102;2023-04-01T00:08:27;98167.81;;;14.10;68.05
27805;BME280;15183;51.350;11.102;2023-04-01T00:10:54;98137.03;;;14.03;67.87
27805;BME280;15183;51.350;11.102;2023-04-01T00:13:21;98137.59;;;14.00;67.91
27805;BME280;15183;51.350;11.102;2023-04-01T00:15:48;98178.63;;;14.32;67.82
27805;BME280;15183;51.350;11.102;2023-04-01T00:18:15;98126.94;;;14.00;67.59
27805;BME280;15183;51.350;11.102;2023-04-01T00:20:49;98171.81;;;14.26;67.50
27805;BME280;15183;51.350;11.102;2023-04-01T00:23:18;98187.34;;;14.38;67.54
27805;BME280;15183;51.350;11.102;2023-04-01T00:25:45;98197.16;;;14.43;67.63
27805;BME280;15183;51.350;11.102;2023-04-01T00:28:13;98188.94;;;14.39;67.48
27805;BME280;15183;51.350;11.102;2023-04-01T00:30:40;98181.88;;;14.29;67.34
27805;BME280;15183;51.350;11.102;2023-04-01T00:33:07;98182.69;;;14.30;67.80
27805;BME280;15183;51.350;11.102;2023-04-01T00:35:33;98175.97;;;14.32;67.37
27805;BME280;15183;51.350;11.102;2023-04-01T00:38:00;98153.84;;;14.18;67.32
27805;BME280;15183;51.350;11.102;2023-04-01T00:40:39;98181.31;;;14.32;67.03
27805;BME280;15183;51.350;11.102;2023-04-01T00:43:20;98191.81;;;14.43;67.38
27805;BME280;15183;51.350;11.102;2023-04-01T00:45:49;98110.94;;;13.86;66.98
27805;BME280;15183;51.350;11.102;2023-04-01T00:48:23;98178.63;;;14.32;67.03
27805;BME280;15183;51.350;11.102;2023-04-01T00:51:06;98193.97;;;14.41;67.38
27805;BME280;15183;51.350;11.102;2023-04-01T00:53:38;98172.03;;;14.30;67.09
27805;BME280;15183;51.350;11.102;2023-04-01T00:56:27;98158.50;;;14.26;67.23
27805;BME280;15183;51.350;11.102;2023-04-01T00:59:19;98188.13;;;14.39;67.45
27805;BME280;15183;51.350;11.102;2023-04-01T01:01:47;98103.44;;;13.88;67.14
27805;BME280;15183;51.350;11.102;2023-04-01T01:04:31;98177.38;;;14.30;67.14
27805;BME280;15183;51.350;11.102;2023-04-01T01:07:38;98187.06;;;14.40;67.48
27805;BME280;15183;51.350;11.102;2023-04-01T01:10:24;98182.31;;;14.37;67.28
27805;BME280;15183;51.350;11.102;2023-04-01T01:13:17;98183.69;;;14.34;67.18
27805;BME280;15183;51.350;11.102;2023-04-01T01:16:13;98180.31;;;14.28;67.03
27805;BME280;15183;51.350;11.102;2023-04-01T01:18:58;98170.97;;;14.31;67.24
27805;BME280;15183;51.350;11.102;2023-04-01T01:22:04;98183.38;;;14.36;67.00
27805;BME280;15183;51.350;11.102;2023-04-01T01:27:20;98170.75;;;14.27;66.82
27805;BME280;15183;51.350;11.102;2023-04-01T01:30:18;98172.81;;;14.30;67.00
27805;BME280;15183;51.350;11.102;2023-04-01T01:33:10;98175.47;;;14.30;67.06
27805;BME280;15183;51.350;11.102;2023-04-01T01:35:51;98170.16;;;14.30;67.00
27805;BME280;15183;51.350;11.102;2023-04-01T01:38:24;98147.78;;;14.12;66.90
27805;BME280;15183;51.350;11.102;2023-04-01T01:40:52;98116.47;;;13.90;66.69
27805;BME280;15183;51.350;11.102;2023-04-01T01:43:26;98160.16;;;14.22;66.40
27805;BME280;15183;51.350;11.102;2023-04-01T01:45:59;98167.06;;;14.23;66.30
27805;BME280;15183;51.350;11.102;2023-04-01T01:48:28;98154.44;;;14.15;66.43
27805;BME280;15183;51.350;11.102;2023-04-01T01:50:55;98157.59;;;14.17;66.29
27805;BME280;15183;51.350;11.102;2023-04-01T01:53:22;98184.06;;;14.27;66.62
27805;BME280;15183;51.350;11.102;2023-04-01T01:55:48;98152.03;;;14.13;66.70
27805;BME280;15183;51.350;11.102;2023-04-01T01:58:27;98178.22;;;14.25;66.40
27805;BME280;15183;51.350;11.102;2023-04-01T02:01:03;98165.41;;;14.27;66.39
27805;BME280;15183;51.350;11.102;2023-04-01T02:03:35;98187.44;;;14.33;66.16
27805;BME280;15183;51.350;11.102;2023-04-01T02:06:08;98159.66;;;14.20;66.38
27805;BME280;15183;51.350;11.102;2023-04-01T02:08:44;98159.94;;;14.18;66.25
27805;BME280;15183;51.350;11.102;2023-04-01T02:11:16;98185.06;;;14.31;65.99
27805;BME280;15183;51.350;11.102;2023-04-01T02:14:10;98176.06;;;14.27;66.05
27805;BME280;15183;51.350;11.102;2023-04-01T02:16:51;98154.94;;;14.17;66.28
27805;BME280;15183;51.350;11.102;2023-04-01T02:19:22;98189.09;;;14.29;66.31
27805;BME280;15183;51.350;11.102;2023-04-01T02:21:57;98178.22;;;14.25;66.23
27805;BME280;15183;51.350;11.102;2023-04-01T02:24:27;98136.47;;;13.87;66.17
27805;BME280;15183;51.350;11.102;2023-04-01T02:26:55;98166.44;;;14.12;66.34
27805;BME280;15183;51.350;11.102;2023-04-01T02:29:23;98181.06;;;14.15;66.37
27805;BME280;15183;51.350;11.102;2023-04-01T02:31:52;98182.72;;;14.11;66.57
27805;BME280;15183;51.350;11.102;2023-04-01T02:34:21;98154.31;;;13.87;66.26
27805;BME280;15183;51.350;11.102;2023-04-01T02:36:49;98150.91;;;13.81;66.02
27805;BME280;15183;51.350;11.102;2023-04-01T02:39:17;98160.22;;;13.84;66.54
27805;BME280;15183;51.350;11.102;2023-04-01T02:41:45;98174.94;;;13.95;66.67
27805;BME280;15183;51.350;11.102;2023-04-01T02:44:14;98138.34;;;13.68;66.73
27805;BME280;15183;51.350;11.102;2023-04-01T02:46:41;98126.69;;;13.64;66.84
27805;BME280;15183;51.350;11.102;2023-04-01T02:49:08;98114.31;;;13.54;66.35
27805;BME280;15183;51.350;11.102;2023-04-01T02:51:34;98177.34;;;13.97;66.84
27805;BME280;15183;51.350;11.102;2023-04-01T02:54:01;98155.31;;;13.91;66.83
27805;BME280;15183;51.350;11.102;2023-04-01T02:56:27;98195.75;;;14.12;66.62
27805;BME280;15183;51.350;11.102;2023-04-01T02:58:54;98174.88;;;14.00;66.17
27805;BME280;15183;51.350;11.102;2023-04-01T03:01:21;98177.25;;;14.02;66.61
27805;BME280;15183;51.350;11.102;2023-04-01T03:03:47;98181.16;;;14.10;66.40
27805;BME280;15183;51.350;11.102;2023-04-01T03:06:16;98186.16;;;14.11;66.51
27805;BME280;15183;51.350;11.102;2023-04-01T03:08:43;98142.88;;;13.86;66.31
27805;BME280;15183;51.350;11.102;2023-04-01T03:11:11;98170.56;;;14.04;65.98
27805;BME280;15183;51.350;11.102;2023-04-01T03:13:37;98169.00;;;14.03;66.22
27805;BME280;15183;51.350;11.102;2023-04-01T03:16:04;98202.28;;;14.20;66.40
27805;BME280;15183;51.350;11.102;2023-04-01T03:18:30;98193.00;;;14.17;66.23
27805;BME280;15183;51.350;11.102;2023-04-01T03:20:57;98165.59;;;13.98;66.61
27805;BME280;15183;51.350;11.102;2023-04-01T03:23:23;98188.81;;;14.11;66.04
27805;BME280;15183;51.350;11.102;2023-04-01T03:25:50;98203.94;;;14.16;66.04
27805;BME280;15183;51.350;11.102;2023-04-01T03:28:17;98189.50;;;14.03;66.30
27805;BME280;15183;51.350;11.102;2023-04-01T03:30:43;98122.03;;;13.55;66.26
27805;BME280;15183;51.350;11.102;2023-04-01T03:33:10;98123.88;;;13.55;66.41
27805;BME280;15183;51.350;11.102;2023-04-01T03:35:36;98172.22;;;13.81;66.44
27805;BME280;15183;51.350;11.102;2023-04-01T03:38:02;98205.13;;;14.10;66.37
27805;BME280;15183;51.350;11.102;2023-04-01T03:40:29;98190.78;;;14.06;66.23
27805;BME280;15183;51.350;11.102;2023-04-01T03:42:55;98193.00;;;13.98;66.36
27805;BME280;15183;51.350;11.102;2023-04-01T03:45:22;98188.25;;;13.95;66.07
27805;BME280;15183;51.350;11.102;2023-04-01T03:47:48;98183.09;;;13.85;65.72
27805;BME280;15183;51.350;11.102;2023-04-01T03:50:15;98140.81;;;13.64;66.17
27805;BME280;15183;51.350;11.102;2023-04-01T03:52:41;98197.25;;;13.99;65.81
27805;BME280;15183;51.350;11.102;2023-04-01T03:55:08;98206.19;;;14.09;65.59
27805;BME280;15183;51.350;11.102;2023-04-01T03:57:34;98193.38;;;14.11;65.86
27805;BME280;15183;51.350;11.102;2023-04-01T04:00:01;98185.19;;;13.88;65.99
27805;BME280;15183;51.350;11.102;2023-04-01T04:02:28;98176.25;;;13.98;65.89
27805;BME280;15183;51.350;11.102;2023-04-01T04:04:54;98132.53;;;13.66;65.80
27805;BME280;15183;51.350;11.102;2023-04-01T04:07:20;98205.53;;;14.17;65.75
27805;BME280;15183;51.350;11.102;2023-04-01T04:09:47;98191.72;;;13.96;65.77
27805;BME280;15183;51.350;11.102;2023-04-01T04:12:13;98210.34;;;14.15;65.79
27805;BME280;15183;51.350;11.102;2023-04-01T04:14:40;98206.97;;;14.09;66.01
27805;BME280;15183;51.350;11.102;2023-04-01T04:17:06;98194.59;;;13.99;65.55
27805;BME280;15183;51.350;11.102;2023-04-01T04:19:34;98216.84;;;14.09;65.66
27805;BME280;15183;51.350;11.102;2023-04-01T04:22:00;98216.53;;;14.10;65.97
27805;BME280;15183;51.350;11.102;2023-04-01T04:24:27;98212.59;;;14.08;65.57
27805;BME280;15183;51.350;11.102;2023-04-01T04:26:53;98224.84;;;14.09;65.65
27805;BME280;15183;51.350;11.102;2023-04-01T04:29:20;98234.41;;;14.10;65.73
27805;BME280;15183;51.350;11.102;2023-04-01T04:31:46;98139.66;;;13.51;65.79
27805;BME280;15183;51.350;11.102;2023-04-01T04:34:13;98218.28;;;14.01;65.88
27805;BME280;15183;51.350;11.102;2023-04-01T04:36:39;98173.44;;;13.70;65.62
27805;BME280;15183;51.350;11.102;2023-04-01T04:39:06;98188.72;;;13.83;65.57
27805;BME280;15183;51.350;11.102;2023-04-01T04:41:32;98147.06;;;13.54;65.43
27805;BME280;15183;51.350;11.102;2023-04-01T04:43:58;98195.66;;;13.79;65.64
27805;BME280;15183;51.350;11.102;2023-04-01T04:46:25;98148.66;;;13.55;65.69
27805;BME280;15183;51.350;11.102;2023-04-01T04:48:52;98194.41;;;13.77;66.10
27805;BME280;15183;51.350;11.102;2023-04-01T04:51:20;98217.03;;;13.93;65.74
27805;BME280;15183;51.350;11.102;2023-04-01T04:53:47;98187.69;;;13.60;65.98
27805;BME280;15183;51.350;11.102;2023-04-01T04:56:21;98215.84;;;13.85;65.95
27805;BME280;15183;51.350;11.102;2023-04-01T04:58:48;98178.13;;;13.59;66.15
27805;BME280;15183;51.350;11.102;2023-04-01T05:01:16;98205.81;;;13.77;65.72
27805;BME280;15183;51.350;11.102;2023-04-01T05:03:42;98158.06;;;13.48;65.49
27805;BME280;15183;51.350;11.102;2023-04-01T05:06:11;98213.88;;;13.91;65.90
27805;BME280;15183;51.350;11.102;2023-04-01T05:08:38;98231.09;;;13.99;66.12
27805;BME280;15183;51.350;11.102;2023-04-01T05:11:14;98186.47;;;13.71;65.18
27805;BME280;15183;51.350;11.102;2023-04-01T05:13:41;98209.94;;;13.88;65.54
27805;BME280;15183;51.350;11.102;2023-04-01T05:16:15;98197.91;;;13.72;65.70
27805;BME280;15183;51.350;11.102;2023-04-01T05:18:41;98228.19;;;13.95;65.85
27805;BME280;15183;51.350;11.102;2023-04-01T05:21:10;98228.84;;;13.87;65.58
27805;BME280;15183;51.350;11.102;2023-04-01T05:23:37;98219.50;;;13.70;65.93
27805;BME280;15183;51.350;11.102;2023-04-01T05:26:06;98262.09;;;13.89;65.65
27805;BME280;15183;51.350;11.102;2023-04-01T05:28:33;98246.31;;;13.74;66.04
27805;BME280;15183;51.350;11.102;2023-04-01T05:31:00;98239.78;;;13.66;66.18
27805;BME280;15183;51.350;11.102;2023-04-01T05:33:28;98251.38;;;13.75;66.57
27805;BME280;15183;51.350;11.102;2023-04-01T05:35:55;98246.91;;;13.71;66.20
27805;BME280;15183;51.350;11.102;2023-04-01T05:38:21;98181.94;;;13.28;66.39
27805;BME280;15183;51.350;11.102;2023-04-01T05:40:47;98154.16;;;13.15;66.32
27805;BME280;15183;51.350;11.102;2023-04-01T05:43:14;98256.41;;;13.77;65.81
27805;BME280;15183;51.350;11.102;2023-04-01T05:45:40;98247.91;;;13.75;66.08
27805;BME280;15183;51.350;11.102;2023-04-01T05:48:06;98215.88;;;13.61;66.02
27805;BME280;15183;51.350;11.102;2023-04-01T05:50:33;98260.53;;;13.88;65.83
27805;BME280;15183;51.350;11.102;2023-04-01T05:52:59;98251.38;;;13.95;66.06
27805;BME280;15183;51.350;11.102;2023-04-01T05:55:26;98246.41;;;13.88;65.57
27805;BME280;15183;51.350;11.102;2023-04-01T05:57:52;98236.75;;;13.92;65.61
27805;BME280;15183;51.350;11.102;2023-04-01T06:00:19;98200.94;;;13.65;64.75
27805;BME280;15183;51.350;11.102;2023-04-01T06:02:46;98259.97;;;14.11;65.59
27805;BME280;15183;51.350;11.102;2023-04-01T06:05:19;98245.69;;;14.01;65.68
27805;BME280;15183;51.350;11.102;2023-04-01T06:07:47;98241.97;;;14.02;65.69
27805;BME280;15183;51.350;11.102;2023-04-01T06:10:19;98260.53;;;14.08;65.53
27805;BME280;15183;51.350;11.102;2023-04-01T06:13:58;98268.66;;;14.16;65.83
27805;BME280;15183;51.350;11.102;2023-04-01T06:25:02;98253.47;;;14.17;65.37
27805;BME280;15183;51.350;11.102;2023-04-01T06:45:53;98275.41;;;14.47;65.75
27805;BME280;15183;51.350;11.102;2023-04-01T06:54:29;98279.22;;;14.79;64.70
27805;BME280;15183;51.350;11.102;2023-04-01T06:57:05;98280.72;;;14.85;64.71
27805;BME280;15183;51.350;11.102;2023-04-01T06:59:37;98279.63;;;14.86;64.54
27805;BME280;15183;51.350;11.102;2023-04-01T07:04:42;98261.94;;;14.90;64.44
27805;BME280;15183;51.350;11.102;2023-04-01T07:10:09;98261.25;;;14.99;63.85
27805;BME280;15183;51.350;11.102;2023-04-01T07:12:45;98271.28;;;15.21;64.26
27805;BME280;15183;51.350;11.102;2023-04-01T07:15:25;98277.91;;;15.38;65.36
27805;BME280;15183;51.350;11.102;2023-04-01T07:18:03;98294.22;;;15.64;64.19
27805;BME280;15183;51.350;11.102;2023-04-01T07:20:37;98299.56;;;15.78;64.01
27805;BME280;15183;51.350;11.102;2023-04-01T07:23:33;98290.56;;;15.88;64.42
27805;BME280;15183;51.350;11.102;2023-04-01T07:26:36;98276.41;;;16.01;63.88
27805;BME280;15183;51.350;11.102;2023-04-01T07:29:09;98285.09;;;16.07;63.34
27805;BME280;15183;51.350;11.102;2023-04-01T07:31:45;98295.44;;;16.23;63.16
27805;BME280;15183;51.350;11.102;2023-04-01T07:34:33;98240.81;;;15.92;63.31
27805;BME280;15183;51.350;11.102;2023-04-01T07:37:38;98305.31;;;16.36;63.44
27805;BME280;15183;51.350;11.102;2023-04-01T07:43:53;98305.31;;;16.36;63.09
27805;BME280;15183;51.350;11.102;2023-04-01T07:47:11;98307.69;;;16.38;63.30
27805;BME280;15183;51.350;11.102;2023-04-01T07:50:13;98312.91;;;16.43;63.29
27805;BME280;15183;51.350;11.102;2023-04-01T07:53:08;98307.72;;;16.46;63.16
27805;BME280;15183;51.350;11.102;2023-04-01T07:56:06;98266.88;;;16.09;63.24
27805;BME280;15183;51.350;11.102;2023-04-01T07:58:42;98314.28;;;16.40;63.06
27805;BME280;15183;51.350;11.102;2023-04-01T08:01:37;98291.69;;;16.24;63.23
27805;BME280;15183;51.350;11.102;2023-04-01T08:04:23;98321.09;;;16.46;63.48
27805;BME280;15183;51.350;11.102;2023-04-01T08:07:20;98311.41;;;16.51;63.17
27805;BME280;15183;51.350;11.102;2023-04-01T08:10:09;98318.88;;;16.62;62.25
27805;BME280;15183;51.350;11.102;2023-04-01T08:13:12;98323.03;;;16.69;62.92
27805;BME280;15183;51.350;11.102;2023-04-01T08:19:06;98327.19;;;16.84;62.63
27805;BME280;15183;51.350;11.102;2023-04-01T08:21:48;98329.03;;;16.97;62.43
27805;BME280;15183;51.350;11.102;2023-04-01T08:24:35;98327.88;;;17.12;62.00
27805;BME280;15183;51.350;11.102;2023-04-01T08:30:23;98322.59;;;17.30;62.06
27805;BME280;15183;51.350;11.102;2023-04-01T08:38:36;98342.66;;;17.90;61.73
27805;BME280;15183;51.350;11.102;2023-04-01T08:44:34;98335.06;;;18.42;60.91
27805;BME280;15183;51.350;11.102;2023-04-01T08:50:32;98327.75;;;18.95;60.63
27805;BME280;15183;51.350;11.102;2023-04-01T08:56:23;98310.22;;;19.15;58.98
27805;BME280;15183;51.350;11.102;2023-04-01T09:17:08;98329.34;;;19.52;58.24
27805;BME280;15183;51.350;11.102;2023-04-01T09:28:33;98330.88;;;19.71;57.90
27805;BME280;15183;51.350;11.102;2023-04-01T09:34:21;98344.84;;;19.94;57.76
27805;BME280;15183;51.350;11.102;2023-04-01T09:37:18;98349.78;;;20.14;57.25
27805;BME280;15183;51.350;11.102;2023-04-01T09:40:14;98279.66;;;19.67;56.79
27805;BME280;15183;51.350;11.102;2023-04-01T10:15:56;98367.63;;;20.39;56.89
27805;BME280;15183;51.350;11.102;2023-04-01T10:27:42;98372.44;;;20.55;56.63
27805;BME280;15183;51.350;11.102;2023-04-01T10:36:57;98366.44;;;20.49;56.74
27805;BME280;15183;51.350;11.102;2023-04-01T10:39:34;98377.00;;;20.54;56.05
27805;BME280;15183;51.350;11.102;2023-04-01T10:45:34;98380.41;;;20.43;56.19
27805;BME280;15183;51.350;11.102;2023-04-01T10:51:10;98375.78;;;20.31;56.43
27805;BME280;15183;51.350;11.102;2023-04-01T10:56:42;98380.63;;;20.07;55.95
27805;BME280;15183;51.350;11.102;2023-04-01T11:00:03;98381.66;;;19.94;56.89
27805;BME280;15183;51.350;11.102;2023-04-01T11:03:31;98374.06;;;19.87;57.01
27805;BME280;15183;51.350;11.102;2023-04-01T11:06:48;98360.53;;;19.75;57.03
27805;BME280;15183;51.350;11.102;2023-04-01T11:15:37;98374.84;;;19.58;57.59
27805;BME280;15183;51.350;11.102;2023-04-01T11:19:04;98381.91;;;19.71;57.68
27805;BME280;15183;51.350;11.102;2023-04-01T11:33:36;98375.25;;;19.30;57.89
27805;BME280;15183;51.350;11.102;2023-04-01T11:42:40;98387.88;;;19.29;57.56
27805;BME280;15183;51.350;11.102;2023-04-01T11:56:14;98404.47;;;19.22;57.28
27805;BME280;15183;51.350;11.102;2023-04-01T12:10:53;98403.84;;;18.90;59.49
27805;BME280;15183;51.350;11.102;2023-04-01T12:19:53;98404.31;;;19.28;57.89
27805;BME280;15183;51.350;11.102;2023-04-01T12:31:17;98346.50;;;19.21;57.09
27805;BME280;15183;51.350;11.102;2023-04-01T12:34:15;98411.63;;;19.66;57.02
27805;BME280;15183;51.350;11.102;2023-04-01T12:42:44;98398.91;;;19.54;57.04
27805;BME280;15183;51.350;11.102;2023-04-01T12:45:33;98417.53;;;19.59;56.44
27805;BME280;15183;51.350;11.102;2023-04-01T12:51:46;98419.75;;;19.57;56.63
27805;BME280;15183;51.350;11.102;2023-04-01T13:09:19;98412.75;;;19.65;57.96
27805;BME280;15183;51.350;11.102;2023-04-01T13:12:06;98429.78;;;19.69;57.59
27805;BME280;15183;51.350;11.102;2023-04-01T13:17:50;98399.00;;;19.66;57.64
27805;BME280;15183;51.350;11.102;2023-04-01T13:28:31;98445.72;;;20.31;56.06
27805;BME280;15183;51.350;11.102;2023-04-01T13:34:45;98424.47;;;19.60;57.94
27805;BME280;15183;51.350;11.102;2023-04-01T13:37:52;98452.50;;;19.33;58.79
27805;BME280;15183;51.350;11.102;2023-04-01T13:40:36;98411.91;;;18.64;59.62
27805;BME280;15183;51.350;11.102;2023-04-01T13:43:29;98454.34;;;18.62;60.34
27805;BME280;15183;51.350;11.102;2023-04-01T13:46:35;98395.31;;;17.86;61.35
27805;BME280;15183;51.350;11.102;2023-04-01T13:49:12;98425.72;;;17.82;61.77
27805;BME280;15183;51.350;11.102;2023-04-01T14:01:14;98464.78;;;17.51;63.34
27805;BME280;15183;51.350;11.102;2023-04-01T14:07:40;98463.88;;;17.33;63.14
27805;BME280;15183;51.350;11.102;2023-04-01T14:13:50;98464.00;;;17.28;63.30
27805;BME280;15183;51.350;11.102;2023-04-01T14:20:22;98465.97;;;17.13;64.19
27805;BME280;15183;51.350;11.102;2023-04-01T14:23:02;98470.38;;;17.18;64.47
27805;BME280;15183;51.350;11.102;2023-04-01T14:28:55;98484.91;;;17.03;64.79
27805;BME280;15183;51.350;11.102;2023-04-01T14:31:59;98475.28;;;17.02;65.24
27805;BME280;15183;51.350;11.102;2023-04-01T14:37:48;98476.06;;;17.16;65.72
27805;BME280;15183;51.350;11.102;2023-04-01T14:43:47;98480.47;;;17.21;65.69
27805;BME280;15183;51.350;11.102;2023-04-01T14:46:50;98485.53;;;17.23;65.57
27805;BME280;15183;51.350;11.102;2023-04-01T14:52:16;98486.06;;;17.11;65.75
27805;BME280;15183;51.350;11.102;2023-04-01T14:54:46;98475.78;;;17.04;66.03
27805;BME280;15183;51.350;11.102;2023-04-01T14:57:15;98477.88;;;17.07;66.27
27805;BME280;15183;51.350;11.102;2023-04-01T15:00:17;98496.16;;;17.14;66.30
27805;BME280;15183;51.350;11.102;2023-04-01T15:03:02;98488.63;;;17.16;66.16
27805;BME280;15183;51.350;11.102;2023-04-01T15:09:14;98491.50;;;17.19;66.37
27805;BME280;15183;51.350;11.102;2023-04-01T15:17:54;98504.97;;;17.28;66.38
27805;BME280;15183;51.350;11.102;2023-04-01T15:20:33;98513.97;;;17.32;65.64
27805;BME280;15183;51.350;11.102;2023-04-01T15:29:04;98513.41;;;17.21;65.33
27805;BME280;15183;51.350;11.102;2023-04-01T15:31:50;98510.72;;;17.21;65.00
27805;BME280;15183;51.350;11.102;2023-04-01T15:34:35;98523.13;;;17.17;65.14
27805;BME280;15183;51.350;11.102;2023-04-01T15:37:21;98505.22;;;17.04;64.88
27805;BME280;15183;51.350;11.102;2023-04-01T15:40:06;98522.44;;;17.12;64.99
27805;BME280;15183;51.350;11.102;2023-04-01T15:43:31;98529.22;;;17.09;65.04
27805;BME280;15183;51.350;11.102;2023-04-01T15:49:34;98535.25;;;17.01;65.23
27805;BME280;15183;51.350;11.102;2023-04-01T15:52:11;98532.66;;;16.96;64.81
27805;BME280;15183;51.350;11.102;2023-04-01T15:55:12;98539.69;;;16.91;64.81
27805;BME280;15183;51.350;11.102;2023-04-01T16:03:27;98556.19;;;16.71;64.85
27805;BME280;15183;51.350;11.102;2023-04-01T16:09:00;98561.72;;;16.46;65.00
27805;BME280;15183;51.350;11.102;2023-04-01T16:12:20;98560.69;;;16.28;65.56
27805;BME280;15183;51.350;11.102;2023-04-01T16:18:31;98571.06;;;15.83;66.98
27805;BME280;15183;51.350;11.102;2023-04-01T16:21:49;98567.63;;;15.63;67.75
27805;BME280;15183;51.350;11.102;2023-04-01T16:24:35;98566.19;;;15.52;68.14
27805;BME280;15183;51.350;11.102;2023-04-01T16:27:25;98557.34;;;15.37;68.40
27805;BME280;15183;51.350;11.102;2023-04-01T16:30:27;98583.38;;;15.45;69.15
27805;BME280;15183;51.350;11.102;2023-04-01T16:33:22;98594.63;;;15.42;68.99
27805;BME280;15183;51.350;11.102;2023-04-01T16:36:40;98590.22;;;15.32;69.30
27805;BME280;15183;51.350;11.102;2023-04-01T16:41:38;98575.84;;;15.09;69.74
27805;BME280;15183;51.350;11.102;2023-04-01T16:44:24;98580.84;;;15.16;70.02
27805;BME280;15183;51.350;11.102;2023-04-01T16:46:59;98589.34;;;15.18;69.95
27805;BME280;15183;51.350;11.102;2023-04-01T16:49:50;98614.88;;;15.24;70.25
27805;BME280;15183;51.350;11.102;2023-04-01T16:55:18;98568.38;;;14.87;69.91
27805;BME280;15183;51.350;11.102;2023-04-01T16:57:57;98575.09;;;14.84;70.14
27805;BME280;15183;51.350;11.102;2023-04-01T17:00:37;98623.53;;;15.16;70.09
27805;BME280;15183;51.350;11.102;2023-04-01T17:03:16;98630.00;;;15.10;70.56
27805;BME280;15183;51.350;11.102;2023-04-01T17:06:00;98595.94;;;14.82;70.41
27805;BME280;15183;51.350;11.102;2023-04-01T17:11:10;98645.34;;;14.99;70.10
27805;BME280;15183;51.350;11.102;2023-04-01T17:13:58;98641.41;;;14.91;70.58
27805;BME280;15183;51.350;11.102;2023-04-01T17:19:53;98649.25;;;14.82;70.22
27805;BME280;15183;51.350;11.102;2023-04-01T17:29:19;98654.41;;;14.44;70.16
27805;BME280;15183;51.350;11.102;2023-04-01T17:35:13;98671.81;;;14.31;70.22
27805;BME280;15183;51.350;11.102;2023-04-01T17:40:46;98677.25;;;14.21;70.31
27805;BME280;15183;51.350;11.102;2023-04-01T17:46:01;98693.03;;;14.12;70.09
27805;BME280;15183;51.350;11.102;2023-04-01T17:49:30;98679.00;;;13.96;70.29
27805;BME280;15183;51.350;11.102;2023-04-01T17:52:30;98679.13;;;13.75;70.46
27805;BME280;15183;51.350;11.102;2023-04-01T17:58:46;98707.84;;;13.78;70.71
27805;BME280;15183;51.350;11.102;2023-04-01T18:01:35;98690.66;;;13.55;71.21
27805;BME280;15183;51.350;11.102;2023-04-01T18:04:11;98720.97;;;13.69;71.05
27805;BME280;15183;51.350;11.102;2023-04-01T18:07:12;98722.03;;;13.63;70.99
27805;BME280;15183;51.350;11.102;2023-04-01T18:10:13;98707.22;;;13.46;71.08
27805;BME280;15183;51.350;11.102;2023-04-01T18:13:30;98730.88;;;13.53;71.00
27805;BME280;15183;51.350;11.102;2023-04-01T18:16:47;98744.75;;;13.45;71.01
27805;BME280;15183;51.350;11.102;2023-04-01T18:22:23;98742.91;;;13.25;71.09
27805;BME280;15183;51.350;11.102;2023-04-01T18:27:50;98759.41;;;13.27;71.03
27805;BME280;15183;51.350;11.102;2023-04-01T18:30:32;98706.28;;;12.85;71.35
27805;BME280;15183;51.350;11.102;2023-04-01T18:33:31;98772.44;;;13.18;71.64
27805;BME280;15183;51.350;11.102;2023-04-01T18:39:08;98787.91;;;13.11;71.24
27805;BME280;15183;51.350;11.102;2023-04-01T18:41:54;98767.16;;;13.02;72.12
27805;BME280;15183;51.350;11.102;2023-04-01T18:44:52;98784.16;;;13.17;72.20
27805;BME280;15183;51.350;11.102;2023-04-01T18:47:45;98784.69;;;13.14;72.30
27805;BME280;15183;51.350;11.102;2023-04-01T18:53:24;98807.81;;;13.34;72.69
27805;BME280;15183;51.350;11.102;2023-04-01T18:55:57;98799.00;;;13.34;72.38
27805;BME280;15183;51.350;11.102;2023-04-01T18:58:35;98813.13;;;13.44;72.65
27805;BME280;15183;51.350;11.102;2023-04-01T19:06:56;98807.78;;;13.50;72.99
27805;BME280;15183;51.350;11.102;2023-04-01T19:09:47;98797.69;;;13.46;72.88
27805;BME280;15183;51.350;11.102;2023-04-01T19:12:46;98817.63;;;13.59;72.92
27805;BME280;15183;51.350;11.102;2023-04-01T19:15:39;98828.75;;;13.72;73.58
27805;BME280;15183;51.350;11.102;2023-04-01T19:21:21;98829.78;;;13.76;73.06
27805;BME280;15183;51.350;11.102;2023-04-01T19:30:23;98836.66;;;13.93;73.38
27805;BME280;15183;51.350;11.102;2023-04-01T19:33:04;98862.19;;;14.04;73.56
27805;BME280;15183;51.350;11.102;2023-04-01T19:38:29;98854.47;;;14.02;72.93
27805;BME280;15183;51.350;11.102;2023-04-01T19:46:57;98880.56;;;14.06;73.03
27805;BME280;15183;51.350;11.102;2023-04-01T19:52:41;98867.56;;;13.94;72.99
27805;BME280;15183;51.350;11.102;2023-04-01T19:55:34;98887.47;;;14.01;72.85
27805;BME280;15183;51.350;11.102;2023-04-01T19:58:50;98891.53;;;13.94;72.06
27805;BME280;15183;51.350;11.102;2023-04-01T20:04:54;98905.94;;;13.67;72.35
27805;BME280;15183;51.350;11.102;2023-04-01T20:07:37;98916.63;;;13.56;72.23
27805;BME280;15183;51.350;11.102;2023-04-01T20:10:47;98922.19;;;13.39;72.06
27805;BME280;15183;51.350;11.102;2023-04-01T20:16:21;98928.03;;;13.00;72.71
27805;BME280;15183;51.350;11.102;2023-04-01T20:19:00;98925.63;;;12.88;72.94
27805;BME280;15183;51.350;11.102;2023-04-01T20:21:35;98943.94;;;12.84;72.95
27805;BME280;15183;51.350;11.102;2023-04-01T20:26:50;98965.16;;;12.64;73.41
27805;BME280;15183;51.350;11.102;2023-04-01T20:29:38;98954.97;;;12.45;73.35